MSC Chiara — H3RT — position and weather

sailwx.info

Track history (hours):
 
Tides and Currents Weather Stations Pressure Air Temp Water Temp Dewpoint Dewpoint Depression Visibility Wind Speed Wind Dir Waves Ship Positions

MSC Chiara

Last reported at 2015-Feb-28 00:33 UTC. Time now 2015-Feb-28 00:42 UTC.
Position S 29°53' E 031°01'.

Length 197 m; draft 7.7 m.

Type: Ship (hazmat cat A). MMSI: 352398000.

Date/timePositionNaut miles runAvg speedWind from/ knotsBaromVisibWave heightAir tempDewpointWater temp
2015-Feb-28 00:33S 29°53' E 031°01'0 0.0
2015-Feb-27 23:33S 29°53' E 031°01'0 0.0
2015-Feb-27 22:32S 29°53' E 031°01'0 0.0
2015-Feb-27 21:31S 29°53' E 031°01'0 0.0
2015-Feb-27 20:31S 29°53' E 031°01'0 0.0
2015-Feb-27 19:30S 29°53' E 031°01'0 0.0
2015-Feb-27 18:24S 29°53' E 031°01'0 0.0
2015-Feb-27 17:30S 29°53' E 031°01'0 0.0
2015-Feb-27 16:29S 29°53' E 031°01'0 0.0
2015-Feb-27 15:17S 29°53' E 031°01'0 0.0
2015-Feb-27 14:28S 29°53' E 031°01'0 0.0
2015-Feb-27 13:22S 29°53' E 031°01'0 0.0
2015-Feb-27 12:28S 29°53' E 031°01'0 0.0
2015-Feb-27 11:27S 29°53' E 031°01'0 0.0
2015-Feb-27 10:33S 29°53' E 031°01'0 0.0
2015-Feb-27 09:32S 29°53' E 031°01'0 0.0
2015-Feb-27 08:32S 29°53' E 031°01'0 0.0
2015-Feb-27 07:31S 29°53' E 031°01'0 0.0
2015-Feb-27 06:31S 29°53' E 031°01'0 0.0
2015-Feb-27 05:31S 29°53' E 031°01'0 0.0
2015-Feb-27 04:12S 29°53' E 031°01'0 0.0
2015-Feb-27 03:30S 29°53' E 031°01'0 0.0
2015-Feb-27 02:29S 29°53' E 031°01'0 0.0
2015-Feb-27 01:29S 29°53' E 031°01'0 0.0
2015-Feb-27 00:22S 29°53' E 031°01'0 0.0
2015-Feb-26 23:28S 29°53' E 031°01'0 0.0
2015-Feb-26 22:33S 29°53' E 031°01'0 0.0
2015-Feb-26 21:33S 29°53' E 031°01'0 0.0
2015-Feb-26 20:32S 29°53' E 031°01'0 0.0
2015-Feb-26 19:32S 29°53' E 031°01'0 0.0
2015-Feb-26 18:31S 29°53' E 031°01'0 0.0
2015-Feb-26 17:31S 29°53' E 031°01'0 0.0
2015-Feb-26 11:28S 29°53' E 031°01'0 0.0
2015-Feb-26 10:28S 29°53' E 031°01'0 0.0
2015-Feb-26 09:28S 29°53' E 031°01'0 0.0
2015-Feb-26 08:33S 29°53' E 031°01'0 0.0
2015-Feb-26 07:33S 29°53' E 031°01'0 0.0
2015-Feb-26 06:32S 29°53' E 031°01'0 0.0
2015-Feb-26 05:32S 29°53' E 031°01'0 0.0
2015-Feb-26 04:31S 29°53' E 031°01'0 0.0
2015-Feb-26 03:31S 29°53' E 031°01'0 0.0
2015-Feb-26 02:30S 29°53' E 031°01'0 0.0
2015-Feb-26 01:30S 29°53' E 031°01'0 0.0
2015-Feb-26 00:30S 29°53' E 031°01'0 0.0
2015-Feb-25 23:29S 29°53' E 031°01'0 0.0
2015-Feb-25 22:23S 29°53' E 031°01'0 0.0
2015-Feb-25 21:28S 29°53' E 031°01'0 0.0
2015-Feb-25 20:29S 29°53' E 031°01'0 0.0
2015-Feb-25 19:29S 29°53' E 031°01'0 0.0
2015-Feb-25 18:16S 29°53' E 031°01'0 0.0
2015-Feb-25 17:28S 29°53' E 031°01'0 0.0
2015-Feb-25 16:21S 29°53' E 031°01'0 0.0
2015-Feb-25 15:27S 29°53' E 031°01'0 0.0
2015-Feb-25 14:32S 29°53' E 031°01'0 0.0
2015-Feb-25 13:26S 29°53' E 031°01'0 0.0
2015-Feb-25 12:32S 29°53' E 031°01'0 0.0
2015-Feb-25 11:31S 29°53' E 031°01'0 0.0
2015-Feb-25 10:31S 29°53' E 031°01'0 0.0
2015-Feb-25 09:30S 29°53' E 031°01'0 0.0
2015-Feb-25 08:30S 29°53' E 031°01'0 0.0
2015-Feb-25 07:29S 29°53' E 031°01'0 0.0
2015-Feb-25 06:29S 29°53' E 031°01'0 0.0
2015-Feb-25 05:04S 29°53' E 031°01'0 0.0
2015-Feb-25 04:28S 29°53' E 031°01'0 0.0
2015-Feb-25 03:16S 29°53' E 031°01'0 0.0
2015-Feb-25 02:33S 29°53' E 031°01'0 0.0
2015-Feb-25 01:33S 29°53' E 031°01'0 0.0
2015-Feb-25 00:32S 29°53' E 031°01'0 0.0
2015-Feb-24 23:26S 29°53' E 031°01'0 0.0
2015-Feb-24 22:31S 29°53' E 031°01'0 0.0
2015-Feb-24 21:31S 29°53' E 031°01'0 0.0
2015-Feb-24 20:31S 29°53' E 031°01'0 0.0
2015-Feb-24 19:30S 29°53' E 031°01'3 3.5
2015-Feb-24 18:33S 29°51' E 031°05'4 3.5
2015-Feb-24 17:33S 29°49' E 031°08'8 8.3
2015-Feb-24 16:33S 29°49' E 031°17'4 4.2
2015-Feb-24 15:33S 29°47' E 031°21'9 9.5
2015-Feb-24 14:33S 29°38' E 031°19'6 5.8
2015-Feb-24 13:30S 29°32' E 031°17'0 0.0
2015-Feb-24 12:29S 29°32' E 031°17'0 0.0
2015-Feb-24 11:29S 29°32' E 031°17'0 0.0
2015-Feb-24 10:33S 29°32' E 031°17'0 0.0
2015-Feb-24 09:28S 29°32' E 031°17'0 0.1
2015-Feb-24 08:27S 29°32' E 031°17'0 0.0
2015-Feb-24 07:33S 29°32' E 031°17'0 0.0
2015-Feb-24 06:33S 29°32' E 031°17'0 0.0
2015-Feb-24 05:32S 29°32' E 031°17'0 0.0
2015-Feb-24 04:26S 29°32' E 031°17'0 0.0
2015-Feb-24 03:31S 29°32' E 031°17'0 0.0
2015-Feb-24 02:31S 29°32' E 031°17'0 0.0
2015-Feb-24 01:30S 29°32' E 031°17'0 0.0
2015-Feb-24 00:30S 29°32' E 031°17'0 0.0
2015-Feb-23 23:30S 29°32' E 031°17'0 0.0
2015-Feb-23 22:29S 29°32' E 031°17'0 0.0
2015-Feb-23 21:29S 29°32' E 031°17'0 0.0
2015-Feb-23 20:22S 29°32' E 031°17'0 0.0
2015-Feb-23 19:28S 29°32' E 031°17'0 0.0
2015-Feb-23 18:21S 29°32' E 031°17'0 0.0
2015-Feb-23 17:27S 29°32' E 031°17'0 0.0
2015-Feb-23 16:33S 29°32' E 031°17'0 0.1
2015-Feb-23 15:32S 29°32' E 031°17'0 0.0
2015-Feb-23 14:26S 29°32' E 031°17'0 0.0
2015-Feb-23 13:31S 29°32' E 031°17'0 0.0
2015-Feb-23 12:31S 29°32' E 031°17'0 0.0
2015-Feb-23 11:30S 29°32' E 031°17'0 0.0
2015-Feb-23 10:30S 29°32' E 031°17'0 0.0
2015-Feb-23 09:29S 29°31' E 031°17'0 0.0
2015-Feb-23 08:29S 29°31' E 031°17'0 0.0
2015-Feb-23 07:29S 29°31' E 031°17'0 0.0
2015-Feb-23 06:22S 29°31' E 031°18'0 0.1
2015-Feb-23 05:22S 29°31' E 031°18'0 0.0
2015-Feb-23 04:32S 29°31' E 031°18'0 0.0
2015-Feb-23 03:33S 29°31' E 031°18'0 0.0
2015-Feb-23 02:32S 29°31' E 031°18'0 0.0
2015-Feb-23 01:32S 29°31' E 031°18'0 0.0
2015-Feb-23 00:32S 29°31' E 031°18'0 0.0
2015-Feb-22 23:25S 29°31' E 031°18'0 0.1
2015-Feb-22 22:33S 29°31' E 031°18'9 8.9
2015-Feb-22 21:33S 29°33' E 031°28'1212.3
2015-Feb-22 20:33S 29°27' E 031°40'1514.8
2015-Feb-22 19:31S 29°16' E 031°52'  
Track history (hours):
 
Tides and Currents Weather Stations Pressure Air Temp Water Temp Dewpoint Dewpoint Depression Visibility Wind Speed Wind Dir Waves Ship Positions

MSC Chiara

Last reported at 2015-Feb-28 00:33 UTC. Time now 2015-Feb-28 00:42 UTC.
Position S 29°53' E 031°01'.

Length 197 m; draft 7.7 m.

Type: Ship (hazmat cat A). MMSI: 352398000.

Date/timePositionNaut miles runAvg speedWind from/ knotsBaromVisibWave heightAir tempDewpointWater temp
2015-Feb-28 00:33S 29°53' E 031°01'0 0.0
2015-Feb-27 23:33S 29°53' E 031°01'0 0.0
2015-Feb-27 22:32S 29°53' E 031°01'0 0.0
2015-Feb-27 21:31S 29°53' E 031°01'0 0.0
2015-Feb-27 20:31S 29°53' E 031°01'0 0.0
2015-Feb-27 19:30S 29°53' E 031°01'0 0.0
2015-Feb-27 18:24S 29°53' E 031°01'0 0.0
2015-Feb-27 17:30S 29°53' E 031°01'0 0.0
2015-Feb-27 16:29S 29°53' E 031°01'0 0.0
2015-Feb-27 15:17S 29°53' E 031°01'0 0.0
2015-Feb-27 14:28S 29°53' E 031°01'0 0.0
2015-Feb-27 13:22S 29°53' E 031°01'0 0.0
2015-Feb-27 12:28S 29°53' E 031°01'0 0.0
2015-Feb-27 11:27S 29°53' E 031°01'0 0.0
2015-Feb-27 10:33S 29°53' E 031°01'0 0.0
2015-Feb-27 09:32S 29°53' E 031°01'0 0.0
2015-Feb-27 08:32S 29°53' E 031°01'0 0.0
2015-Feb-27 07:31S 29°53' E 031°01'0 0.0
2015-Feb-27 06:31S 29°53' E 031°01'0 0.0
2015-Feb-27 05:31S 29°53' E 031°01'0 0.0
2015-Feb-27 04:12S 29°53' E 031°01'0 0.0
2015-Feb-27 03:30S 29°53' E 031°01'0 0.0
2015-Feb-27 02:29S 29°53' E 031°01'0 0.0
2015-Feb-27 01:29S 29°53' E 031°01'0 0.0
2015-Feb-27 00:22S 29°53' E 031°01'0 0.0
2015-Feb-26 23:28S 29°53' E 031°01'0 0.0
2015-Feb-26 22:33S 29°53' E 031°01'0 0.0
2015-Feb-26 21:33S 29°53' E 031°01'0 0.0
2015-Feb-26 20:32S 29°53' E 031°01'0 0.0
2015-Feb-26 19:32S 29°53' E 031°01'0 0.0
2015-Feb-26 18:31S 29°53' E 031°01'0 0.0
2015-Feb-26 17:31S 29°53' E 031°01'0 0.0
2015-Feb-26 11:28S 29°53' E 031°01'0 0.0
2015-Feb-26 10:28S 29°53' E 031°01'0 0.0
2015-Feb-26 09:28S 29°53' E 031°01'0 0.0
2015-Feb-26 08:33S 29°53' E 031°01'0 0.0
2015-Feb-26 07:33S 29°53' E 031°01'0 0.0
2015-Feb-26 06:32S 29°53' E 031°01'0 0.0
2015-Feb-26 05:32S 29°53' E 031°01'0 0.0
2015-Feb-26 04:31S 29°53' E 031°01'0 0.0
2015-Feb-26 03:31S 29°53' E 031°01'0 0.0
2015-Feb-26 02:30S 29°53' E 031°01'0 0.0
2015-Feb-26 01:30S 29°53' E 031°01'0 0.0
2015-Feb-26 00:30S 29°53' E 031°01'0 0.0
2015-Feb-25 23:29S 29°53' E 031°01'0 0.0
2015-Feb-25 22:23S 29°53' E 031°01'0 0.0
2015-Feb-25 21:28S 29°53' E 031°01'0 0.0
2015-Feb-25 20:29S 29°53' E 031°01'0 0.0
2015-Feb-25 19:29S 29°53' E 031°01'0 0.0
2015-Feb-25 18:16S 29°53' E 031°01'0 0.0
2015-Feb-25 17:28S 29°53' E 031°01'0 0.0
2015-Feb-25 16:21S 29°53' E 031°01'0 0.0
2015-Feb-25 15:27S 29°53' E 031°01'0 0.0
2015-Feb-25 14:32S 29°53' E 031°01'0 0.0
2015-Feb-25 13:26S 29°53' E 031°01'0 0.0
2015-Feb-25 12:32S 29°53' E 031°01'0 0.0
2015-Feb-25 11:31S 29°53' E 031°01'0 0.0
2015-Feb-25 10:31S 29°53' E 031°01'0 0.0
2015-Feb-25 09:30S 29°53' E 031°01'0 0.0
2015-Feb-25 08:30S 29°53' E 031°01'0 0.0
2015-Feb-25 07:29S 29°53' E 031°01'0 0.0
2015-Feb-25 06:29S 29°53' E 031°01'0 0.0
2015-Feb-25 05:04S 29°53' E 031°01'0 0.0
2015-Feb-25 04:28S 29°53' E 031°01'0 0.0
2015-Feb-25 03:16S 29°53' E 031°01'0 0.0
2015-Feb-25 02:33S 29°53' E 031°01'0 0.0
2015-Feb-25 01:33S 29°53' E 031°01'0 0.0
2015-Feb-25 00:32S 29°53' E 031°01'0 0.0
2015-Feb-24 23:26S 29°53' E 031°01'0 0.0
2015-Feb-24 22:31S 29°53' E 031°01'0 0.0
2015-Feb-24 21:31S 29°53' E 031°01'0 0.0
2015-Feb-24 20:31S 29°53' E 031°01'0 0.0
2015-Feb-24 19:30S 29°53' E 031°01'3 3.5
2015-Feb-24 18:33S 29°51' E 031°05'4 3.5
2015-Feb-24 17:33S 29°49' E 031°08'8 8.3
2015-Feb-24 16:33S 29°49' E 031°17'4 4.2
2015-Feb-24 15:33S 29°47' E 031°21'9 9.5
2015-Feb-24 14:33S 29°38' E 031°19'6 5.8
2015-Feb-24 13:30S 29°32' E 031°17'0 0.0
2015-Feb-24 12:29S 29°32' E 031°17'0 0.0
2015-Feb-24 11:29S 29°32' E 031°17'0 0.0
2015-Feb-24 10:33S 29°32' E 031°17'0 0.0
2015-Feb-24 09:28S 29°32' E 031°17'0 0.1
2015-Feb-24 08:27S 29°32' E 031°17'0 0.0
2015-Feb-24 07:33S 29°32' E 031°17'0 0.0
2015-Feb-24 06:33S 29°32' E 031°17'0 0.0
2015-Feb-24 05:32S 29°32' E 031°17'0 0.0
2015-Feb-24 04:26S 29°32' E 031°17'0 0.0
2015-Feb-24 03:31S 29°32' E 031°17'0 0.0
2015-Feb-24 02:31S 29°32' E 031°17'0 0.0
2015-Feb-24 01:30S 29°32' E 031°17'0 0.0
2015-Feb-24 00:30S 29°32' E 031°17'0 0.0
2015-Feb-23 23:30S 29°32' E 031°17'0 0.0
2015-Feb-23 22:29S 29°32' E 031°17'0 0.0
2015-Feb-23 21:29S 29°32' E 031°17'0 0.0
2015-Feb-23 20:22S 29°32' E 031°17'0 0.0
2015-Feb-23 19:28S 29°32' E 031°17'0 0.0
2015-Feb-23 18:21S 29°32' E 031°17'0 0.0
2015-Feb-23 17:27S 29°32' E 031°17'0 0.0
2015-Feb-23 16:33S 29°32' E 031°17'0 0.1
2015-Feb-23 15:32S 29°32' E 031°17'0 0.0
2015-Feb-23 14:26S 29°32' E 031°17'0 0.0
2015-Feb-23 13:31S 29°32' E 031°17'0 0.0
2015-Feb-23 12:31S 29°32' E 031°17'0 0.0
2015-Feb-23 11:30S 29°32' E 031°17'0 0.0
2015-Feb-23 10:30S 29°32' E 031°17'0 0.0
2015-Feb-23 09:29S 29°31' E 031°17'0 0.0
2015-Feb-23 08:29S 29°31' E 031°17'0 0.0
2015-Feb-23 07:29S 29°31' E 031°17'0 0.0
2015-Feb-23 06:22S 29°31' E 031°18'0 0.1
2015-Feb-23 05:22S 29°31' E 031°18'0 0.0
2015-Feb-23 04:32S 29°31' E 031°18'0 0.0
2015-Feb-23 03:33S 29°31' E 031°18'0 0.0
2015-Feb-23 02:32S 29°31' E 031°18'0 0.0
2015-Feb-23 01:32S 29°31' E 031°18'0 0.0
2015-Feb-23 00:32S 29°31' E 031°18'0 0.0
2015-Feb-22 23:25S 29°31' E 031°18'0 0.1
2015-Feb-22 22:33S 29°31' E 031°18'9 8.9
2015-Feb-22 21:33S 29°33' E 031°28'1212.3
2015-Feb-22 20:33S 29°27' E 031°40'1514.8
2015-Feb-22 19:31S 29°16' E 031°52'  

Dump ship's entire track history